Time;durP1;ratioP1;P1;durP2;ratioP2;P2;SDS_P1;SDS_P2;PMS_P1;PMS_P2;Temp;Humidity;BMP_temperature;BMP_pressure;BME280_temperature;BME280_humidity;BME280_pressure;Samples;Min_cycle;Max_cycle;Signal;HPM_P1;HPM_P2
2020/12/10 00:08:19;;;;;;;42.65;17.60;;;0.10;99.90;;;;;;21088578;28;20028;-78
2020/12/10 00:18:20;;;;;;;38.88;17.48;;;0.00;99.90;;;;;;21088439;28;20034;-78
2020/12/10 00:28:20;;;;;;;31.42;14.98;;;0.00;99.90;;;;;;21069362;28;20078;-78
2020/12/10 00:38:21;;;;;;;32.50;14.25;;;-0.10;99.90;;;;;;21086955;28;20089;-78
2020/12/10 00:48:23;;;;;;;35.90;15.75;;;-0.20;99.90;;;;;;21066860;28;20036;-78
2020/12/10 00:58:24;;;;;;;30.70;14.60;;;-0.10;99.90;;;;;;21087603;28;20559;-78
2020/12/10 01:08:24;;;;;;;34.53;14.68;;;0.00;99.90;;;;;;21043286;28;20020;-78
2020/12/10 01:18:25;;;;;;;32.92;15.45;;;0.00;99.90;;;;;;21066071;28;20127;-78
2020/12/10 01:28:26;;;;;;;41.33;15.50;;;0.10;99.90;;;;;;21080549;28;20052;-78
2020/12/10 01:38:27;;;;;;;34.97;16.50;;;0.00;99.90;;;;;;21083965;28;20038;-78
2020/12/10 01:48:28;;;;;;;33.10;14.10;;;0.00;99.90;;;;;;21068436;28;20111;-78
2020/12/10 01:58:28;;;;;;;31.80;14.48;;;0.10;99.90;;;;;;21062774;28;20028;-80
2020/12/10 02:08:29;;;;;;;35.30;15.13;;;-0.10;99.90;;;;;;21069288;28;20398;-80
2020/12/10 02:18:30;;;;;;;37.10;15.30;;;-0.10;99.90;;;;;;21086356;28;20047;-80
2020/12/10 02:28:31;;;;;;;32.42;14.85;;;-0.10;99.90;;;;;;21083898;28;20023;-80
2020/12/10 02:38:32;;;;;;;35.88;14.25;;;-0.30;99.90;;;;;;21092442;28;20622;-80
2020/12/10 02:48:32;;;;;;;33.90;13.57;;;-0.40;99.90;;;;;;21083506;28;20032;-79
2020/12/10 02:58:33;;;;;;;30.20;12.57;;;-0.50;99.90;;;;;;21064082;28;20050;-80
2020/12/10 03:08:39;;;;;;;32.53;12.82;;;-0.60;99.90;;;;;;21072276;28;20031;-80
2020/12/10 03:18:40;;;;;;;31.10;13.13;;;-0.50;99.90;;;;;;21084964;28;20036;-80
2020/12/10 03:28:41;;;;;;;28.23;12.70;;;-0.30;99.90;;;;;;21103129;28;20554;-79
2020/12/10 03:38:42;;;;;;;35.20;13.90;;;-0.20;99.90;;;;;;21064030;23;20122;-80
2020/12/10 03:48:43;;;;;;;33.03;12.27;;;-0.20;99.90;;;;;;21008790;28;20036;-80
2020/12/10 03:58:43;;;;;;;41.72;16.25;;;-0.30;99.90;;;;;;20961096;28;20028;-80
2020/12/10 04:08:44;;;;;;;38.97;15.93;;;-0.30;99.90;;;;;;20923439;28;20032;-81
2020/12/10 04:18:45;;;;;;;42.35;17.23;;;-0.30;99.90;;;;;;20924247;28;20040;-80
2020/12/10 04:28:46;;;;;;;48.42;19.90;;;-0.30;99.90;;;;;;20923511;28;20035;-80
2020/12/10 04:38:47;;;;;;;48.17;18.35;;;-0.20;99.90;;;;;;20958557;28;20072;-81
2020/12/10 04:48:48;;;;;;;40.22;16.60;;;-0.10;99.90;;;;;;20989845;28;20479;-81
2020/12/10 04:58:49;;;;;;;46.78;17.88;;;0.00;99.90;;;;;;20987498;28;20036;-80
2020/12/10 05:08:50;;;;;;;41.88;18.13;;;0.00;99.90;;;;;;20985462;28;20029;-79
2020/12/10 05:18:51;;;;;;;40.65;17.75;;;0.10;99.90;;;;;;20969138;28;20044;-80
2020/12/10 05:28:52;;;;;;;45.78;17.33;;;0.00;99.90;;;;;;21002455;28;20041;-80
2020/12/10 05:39:05;;;;;;;44.05;16.30;;;0.00;99.90;;;;;;21006571;28;20036;-79
2020/12/10 05:49:07;;;;;;;42.25;17.52;;;0.00;99.90;;;;;;21009755;28;20107;-79
2020/12/10 05:59:07;;;;;;;41.30;18.75;;;0.00;99.90;;;;;;21007166;28;20024;-79
2020/12/10 06:09:08;;;;;;;47.78;20.10;;;0.10;99.90;;;;;;21004605;28;20070;-79
2020/12/10 06:19:10;;;;;;;51.20;20.33;;;0.10;99.90;;;;;;21004331;28;20039;-79
2020/12/10 06:29:18;;;;;;;51.55;19.92;;;0.10;99.90;;;;;;21009950;28;20025;-81
2020/12/10 06:39:36;;;;;;;49.55;20.23;;;0.10;99.90;;;;;;20976652;28;20119;-81
2020/12/10 06:49:38;;;;;;;48.13;19.50;;;0.10;99.90;;;;;;20978729;28;20116;-80
2020/12/10 06:59:44;;;;;;;59.47;18.95;;;0.10;99.90;;;;;;20996379;28;20036;-80
2020/12/10 07:09:52;;;;;;;53.45;19.20;;;0.10;99.90;;;;;;20979365;28;20035;-80
2020/12/10 07:19:53;;;;;;;53.85;20.00;;;0.10;99.90;;;;;;20997458;28;20051;-80
2020/12/10 07:29:54;;;;;;;49.85;19.70;;;0.20;99.90;;;;;;20996216;28;20020;-79
2020/12/10 07:39:55;;;;;;;54.22;19.77;;;0.20;99.90;;;;;;20976882;28;20036;-80
2020/12/10 07:49:56;;;;;;;55.90;23.38;;;0.10;99.90;;;;;;20994067;28;20433;-80
2020/12/10 08:00:05;;;;;;;66.28;23.75;;;0.20;99.90;;;;;;20989901;28;20498;-81
2020/12/10 08:10:23;;;;;;;53.65;18.65;;;0.20;99.90;;;;;;21007275;28;20029;-79
2020/12/10 08:20:44;;;;;;;47.38;18.08;;;0.30;99.90;;;;;;21006610;28;20036;-79
2020/12/10 08:30:52;;;;;;;38.03;14.77;;;0.40;99.90;;;;;;21004087;28;20563;-79
2020/12/10 08:40:58;;;;;;;42.08;15.30;;;0.60;99.90;;;;;;20986708;28;20044;-80
2020/12/10 08:51:00;;;;;;;32.28;13.60;;;0.70;99.90;;;;;;20986684;28;20090;-79
2020/12/10 09:01:03;;;;;;;24.02;11.25;;;0.70;99.90;;;;;;20986838;28;20130;-80
2020/12/10 09:11:04;;;;;;;33.30;15.52;;;1.00;99.90;;;;;;20984156;28;20033;-81
2020/12/10 09:21:05;;;;;;;;;;;1.20;99.90;;;;;;21004367;28;20032;-81
2020/12/10 09:31:06;;;;;;;34.92;16.30;;;1.30;99.90;;;;;;20985297;28;19919;-81
2020/12/10 09:41:08;;;;;;;32.45;14.75;;;1.30;99.90;;;;;;21008940;23;20101;-74
2020/12/10 09:51:11;;;;;;;36.35;16.65;;;1.30;99.90;;;;;;20993476;28;20082;-74
2020/12/10 10:01:12;;;;;;;57.55;21.50;;;1.40;99.90;;;;;;20992758;28;20032;-74
2020/12/10 10:11:15;;;;;;;32.53;15.18;;;1.60;99.90;;;;;;20992215;28;20445;-75
2020/12/10 10:21:18;;;;;;;34.55;15.27;;;1.50;99.90;;;;;;20991314;28;20032;-75
2020/12/10 10:31:19;;;;;;;27.85;13.27;;;1.60;99.90;;;;;;20991137;28;20395;-75
2020/12/10 10:41:20;;;;;;;20.48;9.40;;;1.50;99.90;;;;;;20990454;28;20032;-76
2020/12/10 10:51:21;;;;;;;28.45;12.75;;;1.50;99.90;;;;;;20990438;28;20055;-75
2020/12/10 11:01:27;;;;;;;33.17;13.10;;;1.70;99.90;;;;;;20989505;28;20382;-75
2020/12/10 11:11:28;;;;;;;20.42;9.63;;;1.60;99.90;;;;;;20989024;28;20028;-75
2020/12/10 11:21:29;;;;;;;24.45;11.50;;;1.60;99.90;;;;;;20988433;28;20086;-75
2020/12/10 11:31:30;;;;;;;;;;;1.70;99.90;;;;;;20998545;28;20028;-75
2020/12/10 11:41:31;;;;;;;26.85;11.45;;;1.60;99.90;;;;;;21003731;28;20006;-76
2020/12/10 11:51:33;;;;;;;20.92;10.73;;;1.60;99.90;;;;;;21002949;28;20044;-76
2020/12/10 12:01:36;;;;;;;;;;;1.70;99.90;;;;;;21002481;28;20560;-76
2020/12/10 12:11:37;;;;;;;25.70;12.30;;;1.90;99.90;;;;;;21004774;28;19946;-76
2020/12/10 12:21:38;;;;;;;20.55;11.05;;;1.80;99.90;;;;;;21000799;28;20522;-76
2020/12/10 12:31:39;;;;;;;22.30;10.77;;;2.00;99.90;;;;;;21000032;28;20028;-77
2020/12/10 12:41:40;;;;;;;22.40;11.35;;;2.00;99.90;;;;;;20980906;28;20278;-77
2020/12/10 12:51:41;;;;;;;22.48;10.63;;;1.90;99.90;;;;;;20980379;28;20033;-76
2020/12/10 13:01:42;;;;;;;28.88;12.52;;;1.80;99.90;;;;;;20996703;28;20111;-76
2020/12/10 13:11:44;;;;;;;29.35;13.10;;;1.70;99.90;;;;;;20996623;28;20039;-76
2020/12/10 13:21:46;;;;;;;30.20;13.65;;;1.60;99.90;;;;;;20995857;28;20103;-76
2020/12/10 13:31:46;;;;;;;34.15;14.77;;;1.50;99.90;;;;;;20995135;28;20055;-77
2020/12/10 13:41:47;;;;;;;;;;;1.50;99.90;;;;;;20994588;28;20033;-77
2020/12/10 13:51:51;;;;;;;38.92;15.05;;;1.50;99.90;;;;;;20992892;28;19916;-76
2020/12/10 14:01:52;;;;;;;34.22;14.98;;;1.40;99.90;;;;;;20992765;28;20048;-77
2020/12/10 14:11:53;;;;;;;;;;;1.40;99.90;;;;;;20991008;28;20028;-77
2020/12/10 14:21:54;;;;;;;31.67;15.00;;;1.40;99.90;;;;;;20959871;28;20442;-76
2020/12/10 14:31:55;;;;;;;39.33;15.75;;;1.40;99.90;;;;;;20919166;28;20492;-76
2020/12/10 14:41:56;;;;;;;;;;;1.30;99.90;;;;;;20888388;28;20147;-77
2020/12/10 14:51:57;;;;;;;40.38;17.55;;;1.30;99.90;;;;;;20886898;28;19935;-76
2020/12/10 15:01:58;;;;;;;36.38;15.60;;;1.20;99.90;;;;;;20873058;28;20418;-77
2020/12/10 15:11:59;;;;;;;39.97;18.05;;;1.30;99.90;;;;;;20903027;28;20037;-77
2020/12/10 15:21:59;;;;;;;;;;;1.30;99.90;;;;;;20902795;28;20036;-77
2020/12/10 15:32:01;;;;;;;36.72;16.13;;;1.30;99.90;;;;;;20902036;28;19924;-76
2020/12/10 15:42:04;;;;;;;37.50;15.93;;;1.30;99.90;;;;;;20985426;22;20156;-77
2020/12/10 15:52:05;;;;;;;35.53;16.05;;;1.30;99.90;;;;;;20984465;28;20040;-78
2020/12/10 16:02:06;;;;;;;43.78;17.33;;;1.20;99.90;;;;;;20983643;28;20028;-77
2020/12/10 16:12:07;;;;;;;;;;;1.30;99.90;;;;;;20985082;28;20063;-77
2020/12/10 16:22:08;;;;;;;50.20;19.37;;;1.30;99.90;;;;;;20984106;28;19935;-78
2020/12/10 16:32:09;;;;;;;;;;;1.30;99.90;;;;;;20968215;28;20275;-77
2020/12/10 16:42:09;;;;;;;36.80;15.60;;;1.20;99.90;;;;;;20963057;28;19926;-77
2020/12/10 16:52:10;;;;;;;;;;;1.20;99.90;;;;;;20962888;28;20103;-77
2020/12/10 17:02:11;;;;;;;42.17;17.25;;;1.20;99.90;;;;;;20952092;28;19908;-77
2020/12/10 17:12:12;;;;;;;;;;;1.20;99.90;;;;;;20981893;28;20083;-77
2020/12/10 17:22:13;;;;;;;40.70;16.40;;;1.20;99.90;;;;;;20972672;28;19924;-78
2020/12/10 17:32:14;;;;;;;38.03;18.73;;;1.20;99.90;;;;;;20945436;28;20033;-78
2020/12/10 17:42:15;;;;;;;;;;;1.30;99.90;;;;;;20991036;28;20025;-77
2020/12/10 17:52:16;;;;;;;34.42;16.13;;;1.40;99.90;;;;;;20967668;28;19912;-77
2020/12/10 18:02:16;;;;;;;;;;;1.30;99.90;;;;;;20971416;28;20032;-77
2020/12/10 18:12:20;;;;;;;36.92;17.67;;;1.20;99.90;;;;;;20963530;28;19916;-77
2020/12/10 18:22:22;;;;;;;39.03;17.63;;;1.30;99.90;;;;;;20969502;28;20113;-80
2020/12/10 18:32:23;;;;;;;37.00;16.80;;;1.30;99.90;;;;;;20932307;28;20029;-80
2020/12/10 18:42:24;;;;;;;;;;;1.20;99.90;;;;;;20964071;28;20044;-78
2020/12/10 18:52:25;;;;;;;42.28;18.15;;;1.20;99.90;;;;;;20984990;28;19995;-78
2020/12/10 19:02:29;;;;;;;43.85;18.73;;;1.10;99.90;;;;;;20966085;28;20116;-77
2020/12/10 19:12:30;;;;;;;36.20;16.67;;;1.10;99.90;;;;;;20975129;28;20029;-77
2020/12/10 19:22:31;;;;;;;41.30;17.48;;;1.20;99.90;;;;;;20994754;28;20542;-79
2020/12/10 19:32:34;;;;;;;37.47;17.05;;;1.30;99.90;;;;;;20982002;28;20057;-78
2020/12/10 19:42:35;;;;;;;39.38;18.10;;;1.30;99.90;;;;;;20966008;28;20482;-80
2020/12/10 19:52:37;;;;;;;41.08;20.60;;;1.20;99.90;;;;;;21008253;28;20437;-79
2020/12/10 20:02:38;;;;;;;36.47;16.85;;;1.30;99.90;;;;;;20996023;28;20550;-78
2020/12/10 20:12:39;;;;;;;37.28;17.30;;;1.40;99.90;;;;;;21016564;28;20112;-78
2020/12/10 20:22:41;;;;;;;46.13;18.95;;;1.20;99.90;;;;;;20975704;28;20505;-80
2020/12/10 20:32:41;;;;;;;28.75;13.38;;;1.10;99.90;;;;;;20976705;28;20086;-77
2020/12/10 20:42:42;;;;;;;;;;;1.10;99.90;;;;;;21006555;28;20071;-77
2020/12/10 20:52:43;;;;;;;22.77;11.13;;;1.20;99.90;;;;;;21034547;28;19919;-78
2020/12/10 21:02:44;;;;;;;;;;;1.20;99.90;;;;;;21049290;28;20032;-78
2020/12/10 21:12:45;;;;;;;26.35;13.30;;;1.10;99.90;;;;;;21043642;28;19966;-78
2020/12/10 21:22:46;;;;;;;;;;;1.00;99.90;;;;;;21079536;28;20050;-78
2020/12/10 21:32:46;;;;;;;26.40;12.53;;;1.00;99.90;;;;;;21079256;28;19908;-78
2020/12/10 21:42:50;;;;;;;;;;;0.90;99.90;;;;;;21087123;28;20290;-79
2020/12/10 21:52:51;;;;;;;30.35;12.55;;;0.90;99.90;;;;;;21083275;28;20011;-78
2020/12/10 22:02:54;;;;;;;;;;;0.90;99.90;;;;;;21070056;28;20391;-77
2020/12/10 22:12:57;;;;;;;27.95;13.80;;;0.90;99.90;;;;;;21061279;28;19947;-79
2020/12/10 22:22:58;;;;;;;28.27;13.23;;;0.90;99.90;;;;;;21088445;28;20035;-79
2020/12/10 22:32:59;;;;;;;26.60;13.45;;;0.80;99.90;;;;;;21094363;28;20084;-79
2020/12/10 22:43:00;;;;;;;;;;;0.80;99.90;;;;;;21077369;28;20229;-79
2020/12/10 22:53:01;;;;;;;25.70;13.57;;;0.80;99.90;;;;;;21061425;28;19943;-80
2020/12/10 23:03:02;;;;;;;;;;;0.90;99.90;;;;;;21062765;28;20368;-78
2020/12/10 23:13:03;;;;;;;27.10;13.35;;;0.70;99.90;;;;;;21059931;28;20274;-79
2020/12/10 23:23:03;;;;;;;26.88;13.18;;;0.70;99.90;;;;;;21065105;28;20066;-79
2020/12/10 23:33:04;;;;;;;;;;;0.60;99.90;;;;;;21095870;28;20024;-78
2020/12/10 23:43:05;;;;;;;26.67;13.27;;;0.50;99.90;;;;;;21091778;28;19919;-78
2020/12/10 23:53:06;;;;;;;;;;;0.50;99.90;;;;;;21090057;28;20028;-79
